sensor_id;sensor_type;location;lat;lon;timestamp;P1;durP1;ratioP1;P2;durP2;ratioP2
7247;SDS011;3665;51.034;13.642;2023-07-02T00:01:17;2.00;;;1.80;;
7247;SDS011;3665;51.034;13.642;2023-07-02T00:06:09;1.97;;;1.77;;
7247;SDS011;3665;51.034;13.642;2023-07-02T00:10:54;2.30;;;1.60;;
7247;SDS011;3665;51.034;13.642;2023-07-02T00:15:47;1.83;;;1.50;;
7247;SDS011;3665;51.034;13.642;2023-07-02T00:20:37;2.60;;;1.67;;
7247;SDS011;3665;51.034;13.642;2023-07-02T00:25:23;2.60;;;1.90;;
7247;SDS011;3665;51.034;13.642;2023-07-02T00:30:09;2.03;;;1.83;;
7247;SDS011;3665;51.034;13.642;2023-07-02T00:34:53;1.27;;;1.17;;
7247;SDS011;3665;51.034;13.642;2023-07-02T00:39:47;1.73;;;1.50;;
7247;SDS011;3665;51.034;13.642;2023-07-02T00:44:30;2.30;;;1.70;;
7247;SDS011;3665;51.034;13.642;2023-07-02T00:49:26;1.37;;;1.27;;
7247;SDS011;3665;51.034;13.642;2023-07-02T00:54:10;1.67;;;1.10;;
7247;SDS011;3665;51.034;13.642;2023-07-02T00:58:54;1.23;;;1.20;;
7247;SDS011;3665;51.034;13.642;2023-07-02T01:03:49;1.83;;;1.43;;
7247;SDS011;3665;51.034;13.642;2023-07-02T01:08:37;1.80;;;1.30;;
7247;SDS011;3665;51.034;13.642;2023-07-02T01:13:22;1.60;;;1.50;;
7247;SDS011;3665;51.034;13.642;2023-07-02T01:18:10;1.20;;;1.10;;
7247;SDS011;3665;51.034;13.642;2023-07-02T01:22:59;1.40;;;1.23;;
7247;SDS011;3665;51.034;13.642;2023-07-02T01:27:46;2.83;;;1.30;;
7247;SDS011;3665;51.034;13.642;2023-07-02T01:32:30;1.83;;;1.67;;
7247;SDS011;3665;51.034;13.642;2023-07-02T01:37:18;1.50;;;1.40;;
7247;SDS011;3665;51.034;13.642;2023-07-02T01:42:10;1.53;;;1.43;;
7247;SDS011;3665;51.034;13.642;2023-07-02T01:46:57;2.20;;;1.53;;
7247;SDS011;3665;51.034;13.642;2023-07-02T01:51:44;1.77;;;1.50;;
7247;SDS011;3665;51.034;13.642;2023-07-02T01:56:28;1.80;;;1.70;;
7247;SDS011;3665;51.034;13.642;2023-07-02T02:01:25;1.70;;;1.60;;
7247;SDS011;3665;51.034;13.642;2023-07-02T02:06:10;2.57;;;1.47;;
7247;SDS011;3665;51.034;13.642;2023-07-02T02:10:54;1.67;;;1.57;;
7247;SDS011;3665;51.034;13.642;2023-07-02T02:15:44;1.47;;;1.37;;
7247;SDS011;3665;51.034;13.642;2023-07-02T02:20:38;1.70;;;1.60;;
7247;SDS011;3665;51.034;13.642;2023-07-02T02:25:23;1.70;;;1.60;;
7247;SDS011;3665;51.034;13.642;2023-07-02T02:30:13;1.87;;;1.50;;
7247;SDS011;3665;51.034;13.642;2023-07-02T02:34:59;1.37;;;1.27;;
7247;SDS011;3665;51.034;13.642;2023-07-02T02:39:48;1.50;;;1.40;;
7247;SDS011;3665;51.034;13.642;2023-07-02T02:44:32;1.70;;;1.60;;
7247;SDS011;3665;51.034;13.642;2023-07-02T02:49:17;1.57;;;1.47;;
7247;SDS011;3665;51.034;13.642;2023-07-02T02:54:04;2.03;;;1.70;;
7247;SDS011;3665;51.034;13.642;2023-07-02T02:58:58;2.20;;;1.80;;
7247;SDS011;3665;51.034;13.642;2023-07-02T03:03:41;3.33;;;1.57;;
7247;SDS011;3665;51.034;13.642;2023-07-02T03:08:28;2.03;;;1.80;;
7247;SDS011;3665;51.034;13.642;2023-07-02T03:13:16;1.53;;;1.40;;
7247;SDS011;3665;51.034;13.642;2023-07-02T03:18:01;1.70;;;1.60;;
7247;SDS011;3665;51.034;13.642;2023-07-02T03:22:48;1.53;;;1.43;;
7247;SDS011;3665;51.034;13.642;2023-07-02T03:27:33;1.90;;;1.80;;
7247;SDS011;3665;51.034;13.642;2023-07-02T03:32:18;1.83;;;1.70;;
7247;SDS011;3665;51.034;13.642;2023-07-02T03:37:07;2.67;;;1.90;;
7247;SDS011;3665;51.034;13.642;2023-07-02T03:42:00;1.90;;;1.70;;
7247;SDS011;3665;51.034;13.642;2023-07-02T03:46:43;1.90;;;1.80;;
7247;SDS011;3665;51.034;13.642;2023-07-02T03:51:33;5.27;;;2.40;;
7247;SDS011;3665;51.034;13.642;2023-07-02T03:56:18;2.20;;;2.00;;
7247;SDS011;3665;51.034;13.642;2023-07-02T04:01:11;1.70;;;1.60;;
7247;SDS011;3665;51.034;13.642;2023-07-02T04:06:03;3.10;;;2.00;;
7247;SDS011;3665;51.034;13.642;2023-07-02T04:10:52;2.37;;;1.77;;
7247;SDS011;3665;51.034;13.642;2023-07-02T04:15:47;3.00;;;1.90;;
7247;SDS011;3665;51.034;13.642;2023-07-02T04:20:31;3.67;;;2.00;;
7247;SDS011;3665;51.034;13.642;2023-07-02T04:25:22;2.83;;;2.10;;
7247;SDS011;3665;51.034;13.642;2023-07-02T04:30:27;2.87;;;2.17;;
7247;SDS011;3665;51.034;13.642;2023-07-02T04:35:14;2.33;;;2.13;;
7247;SDS011;3665;51.034;13.642;2023-07-02T04:40:04;3.93;;;2.00;;
7247;SDS011;3665;51.034;13.642;2023-07-02T04:44:51;3.17;;;2.77;;
7247;SDS011;3665;51.034;13.642;2023-07-02T04:49:36;3.80;;;2.23;;
7247;SDS011;3665;51.034;13.642;2023-07-02T04:54:35;2.70;;;2.50;;
7247;SDS011;3665;51.034;13.642;2023-07-02T04:59:27;2.97;;;2.77;;
7247;SDS011;3665;51.034;13.642;2023-07-02T05:04:12;3.10;;;2.87;;
7247;SDS011;3665;51.034;13.642;2023-07-02T05:09:00;3.80;;;2.90;;
7247;SDS011;3665;51.034;13.642;2023-07-02T05:13:48;3.20;;;2.90;;
7247;SDS011;3665;51.034;13.642;2023-07-02T05:18:43;3.00;;;2.70;;
7247;SDS011;3665;51.034;13.642;2023-07-02T05:23:26;4.07;;;2.80;;
7247;SDS011;3665;51.034;13.642;2023-07-02T05:28:14;3.07;;;2.70;;
7247;SDS011;3665;51.034;13.642;2023-07-02T05:33:07;3.50;;;2.67;;
7247;SDS011;3665;51.034;13.642;2023-07-02T05:37:51;3.73;;;2.90;;
7247;SDS011;3665;51.034;13.642;2023-07-02T05:42:39;2.30;;;2.20;;
7247;SDS011;3665;51.034;13.642;2023-07-02T05:47:28;3.10;;;2.77;;
7247;SDS011;3665;51.034;13.642;2023-07-02T05:52:18;3.50;;;2.90;;
7247;SDS011;3665;51.034;13.642;2023-07-02T05:57:04;2.70;;;2.50;;
7247;SDS011;3665;51.034;13.642;2023-07-02T06:01:50;3.67;;;3.10;;
7247;SDS011;3665;51.034;13.642;2023-07-02T06:06:36;3.67;;;2.80;;
7247;SDS011;3665;51.034;13.642;2023-07-02T06:11:33;5.13;;;2.67;;
7247;SDS011;3665;51.034;13.642;2023-07-02T06:16:17;3.30;;;3.10;;
7247;SDS011;3665;51.034;13.642;2023-07-02T06:21:01;3.27;;;2.87;;
7247;SDS011;3665;51.034;13.642;2023-07-02T06:25:54;2.80;;;2.60;;
7247;SDS011;3665;51.034;13.642;2023-07-02T06:30:42;2.70;;;2.50;;
7247;SDS011;3665;51.034;13.642;2023-07-02T06:35:29;3.17;;;2.70;;
7247;SDS011;3665;51.034;13.642;2023-07-02T06:40:13;2.73;;;2.53;;
7247;SDS011;3665;51.034;13.642;2023-07-02T06:45:07;3.53;;;2.57;;
7247;SDS011;3665;51.034;13.642;2023-07-02T06:49:55;3.00;;;2.20;;
7247;SDS011;3665;51.034;13.642;2023-07-02T06:54:46;2.40;;;2.20;;
7247;SDS011;3665;51.034;13.642;2023-07-02T06:59:29;3.13;;;2.50;;
7247;SDS011;3665;51.034;13.642;2023-07-02T07:04:12;3.13;;;2.30;;
7247;SDS011;3665;51.034;13.642;2023-07-02T07:09:04;3.77;;;2.90;;
7247;SDS011;3665;51.034;13.642;2023-07-02T07:13:48;3.77;;;3.47;;
7247;SDS011;3665;51.034;13.642;2023-07-02T07:18:34;4.10;;;3.67;;
7247;SDS011;3665;51.034;13.642;2023-07-02T07:23:24;3.30;;;3.10;;
7247;SDS011;3665;51.034;13.642;2023-07-02T07:28:18;3.60;;;3.30;;
7247;SDS011;3665;51.034;13.642;2023-07-02T07:33:02;3.60;;;3.40;;
7247;SDS011;3665;51.034;13.642;2023-07-02T07:37:50;3.27;;;2.77;;
7247;SDS011;3665;51.034;13.642;2023-07-02T07:42:36;3.70;;;2.43;;
7247;SDS011;3665;51.034;13.642;2023-07-02T07:47:32;2.80;;;2.60;;
7247;SDS011;3665;51.034;13.642;2023-07-02T07:52:18;3.80;;;3.20;;
7247;SDS011;3665;51.034;13.642;2023-07-02T07:57:14;2.53;;;2.43;;
7247;SDS011;3665;51.034;13.642;2023-07-02T08:02:03;2.23;;;2.13;;
7247;SDS011;3665;51.034;13.642;2023-07-02T08:06:52;2.77;;;1.73;;
7247;SDS011;3665;51.034;13.642;2023-07-02T08:11:40;3.07;;;2.27;;
7247;SDS011;3665;51.034;13.642;2023-07-02T08:16:43;2.00;;;1.90;;
7247;SDS011;3665;51.034;13.642;2023-07-02T08:21:39;3.20;;;2.00;;
7247;SDS011;3665;51.034;13.642;2023-07-02T08:26:26;2.33;;;1.97;;
7247;SDS011;3665;51.034;13.642;2023-07-02T08:31:12;2.67;;;1.87;;
7247;SDS011;3665;51.034;13.642;2023-07-02T08:35:57;2.20;;;2.00;;
7247;SDS011;3665;51.034;13.642;2023-07-02T08:40:48;2.00;;;1.85;;
7247;SDS011;3665;51.034;13.642;2023-07-02T08:45:37;2.20;;;2.00;;
7247;SDS011;3665;51.034;13.642;2023-07-02T08:50:26;1.87;;;1.77;;
7247;SDS011;3665;51.034;13.642;2023-07-02T08:55:24;1.93;;;1.70;;
7247;SDS011;3665;51.034;13.642;2023-07-02T09:00:15;2.58;;;1.73;;
7247;SDS011;3665;51.034;13.642;2023-07-02T09:05:06;2.00;;;1.73;;
7247;SDS011;3665;51.034;13.642;2023-07-02T09:09:55;1.67;;;1.30;;
7247;SDS011;3665;51.034;13.642;2023-07-02T09:14:44;1.70;;;1.60;;
7247;SDS011;3665;51.034;13.642;2023-07-02T09:19:31;2.63;;;1.90;;
7247;SDS011;3665;51.034;13.642;2023-07-02T09:24:19;2.45;;;1.50;;
7247;SDS011;3665;51.034;13.642;2023-07-02T09:29:03;1.65;;;1.40;;
7247;SDS011;3665;51.034;13.642;2023-07-02T09:33:48;1.98;;;1.38;;
7247;SDS011;3665;51.034;13.642;2023-07-02T09:38:44;1.38;;;1.27;;
7247;SDS011;3665;51.034;13.642;2023-07-02T09:43:31;1.70;;;1.60;;
7247;SDS011;3665;51.034;13.642;2023-07-02T09:48:22;1.40;;;1.30;;
7247;SDS011;3665;51.034;13.642;2023-07-02T09:53:08;2.25;;;1.50;;
7247;SDS011;3665;51.034;13.642;2023-07-02T09:57:53;5.88;;;1.50;;
7247;SDS011;3665;51.034;13.642;2023-07-02T10:02:46;1.50;;;1.40;;
7247;SDS011;3665;51.034;13.642;2023-07-02T10:07:34;5.25;;;1.55;;
7247;SDS011;3665;51.034;13.642;2023-07-02T10:12:20;2.58;;;1.65;;
7247;SDS011;3665;51.034;13.642;2023-07-02T10:17:06;2.08;;;1.35;;
7247;SDS011;3665;51.034;13.642;2023-07-02T10:22:04;3.50;;;2.03;;
7247;SDS011;3665;51.034;13.642;2023-07-02T10:27:00;3.28;;;1.52;;
7247;SDS011;3665;51.034;13.642;2023-07-02T10:31:47;3.47;;;1.38;;
7247;SDS011;3665;51.034;13.642;2023-07-02T10:36:34;1.60;;;1.50;;
7247;SDS011;3665;51.034;13.642;2023-07-02T10:46:53;1.25;;;1.00;;
7247;SDS011;3665;51.034;13.642;2023-07-02T10:51:56;1.80;;;1.60;;
7247;SDS011;3665;51.034;13.642;2023-07-02T10:57:24;2.38;;;1.73;;
7247;SDS011;3665;51.034;13.642;2023-07-02T11:07:22;1.60;;;1.50;;
7247;SDS011;3665;51.034;13.642;2023-07-02T11:12:26;1.45;;;1.17;;
7247;SDS011;3665;51.034;13.642;2023-07-02T11:17:41;2.00;;;1.35;;
7247;SDS011;3665;51.034;13.642;2023-07-02T11:22:30;1.40;;;1.30;;
7247;SDS011;3665;51.034;13.642;2023-07-02T11:27:27;1.60;;;1.20;;
7247;SDS011;3665;51.034;13.642;2023-07-02T11:32:28;1.50;;;0.95;;
7247;SDS011;3665;51.034;13.642;2023-07-02T11:37:23;2.70;;;1.30;;
7247;SDS011;3665;51.034;13.642;2023-07-02T11:42:10;1.95;;;1.38;;
7247;SDS011;3665;51.034;13.642;2023-07-02T11:46:58;1.50;;;1.40;;
7247;SDS011;3665;51.034;13.642;2023-07-02T11:51:46;3.30;;;1.20;;
7247;SDS011;3665;51.034;13.642;2023-07-02T11:56:34;4.45;;;1.52;;
7247;SDS011;3665;51.034;13.642;2023-07-02T12:01:23;3.80;;;1.70;;
7247;SDS011;3665;51.034;13.642;2023-07-02T12:06:07;2.58;;;1.85;;
7247;SDS011;3665;51.034;13.642;2023-07-02T12:10:58;2.60;;;1.77;;
7247;SDS011;3665;51.034;13.642;2023-07-02T12:15:53;3.97;;;1.77;;
7247;SDS011;3665;51.034;13.642;2023-07-02T12:20:37;2.30;;;1.80;;
7247;SDS011;3665;51.034;13.642;2023-07-02T12:25:23;2.35;;;1.73;;
7247;SDS011;3665;51.034;13.642;2023-07-02T12:30:11;3.45;;;1.77;;
7247;SDS011;3665;51.034;13.642;2023-07-02T12:35:00;2.95;;;1.88;;
7247;SDS011;3665;51.034;13.642;2023-07-02T12:39:45;2.13;;;1.63;;
7247;SDS011;3665;51.034;13.642;2023-07-02T12:44:28;2.47;;;1.83;;
7247;SDS011;3665;51.034;13.642;2023-07-02T12:49:24;5.95;;;1.83;;
7247;SDS011;3665;51.034;13.642;2023-07-02T12:54:11;3.78;;;2.20;;
7247;SDS011;3665;51.034;13.642;2023-07-02T12:58:56;4.30;;;2.15;;
7247;SDS011;3665;51.034;13.642;2023-07-02T13:03:44;3.38;;;2.03;;
7247;SDS011;3665;51.034;13.642;2023-07-02T13:08:36;2.83;;;1.98;;
7247;SDS011;3665;51.034;13.642;2023-07-02T13:13:21;5.43;;;1.90;;
7247;SDS011;3665;51.034;13.642;2023-07-02T13:18:09;4.05;;;2.15;;
7247;SDS011;3665;51.034;13.642;2023-07-02T13:22:59;4.88;;;2.88;;
7247;SDS011;3665;51.034;13.642;2023-07-02T13:27:49;6.40;;;2.80;;
7247;SDS011;3665;51.034;13.642;2023-07-02T13:37:37;4.75;;;2.70;;
7247;SDS011;3665;51.034;13.642;2023-07-02T13:42:29;3.25;;;2.65;;
7247;SDS011;3665;51.034;13.642;2023-07-02T13:47:13;3.03;;;2.45;;
7247;SDS011;3665;51.034;13.642;2023-07-02T13:52:12;2.90;;;2.05;;
7247;SDS011;3665;51.034;13.642;2023-07-02T13:57:06;4.57;;;2.30;;
7247;SDS011;3665;51.034;13.642;2023-07-02T14:06:57;3.65;;;2.42;;
7247;SDS011;3665;51.034;13.642;2023-07-02T14:11:44;3.35;;;2.58;;
7247;SDS011;3665;51.034;13.642;2023-07-02T14:16:33;3.72;;;2.42;;
7247;SDS011;3665;51.034;13.642;2023-07-02T14:21:25;2.42;;;2.22;;
7247;SDS011;3665;51.034;13.642;2023-07-02T14:26:11;3.95;;;2.78;;
7247;SDS011;3665;51.034;13.642;2023-07-02T14:30:58;3.22;;;2.92;;
7247;SDS011;3665;51.034;13.642;2023-07-02T14:35:49;5.60;;;2.92;;
7247;SDS011;3665;51.034;13.642;2023-07-02T14:40:35;5.43;;;3.15;;
7247;SDS011;3665;51.034;13.642;2023-07-02T14:45:22;5.13;;;3.20;;
7247;SDS011;3665;51.034;13.642;2023-07-02T14:50:06;4.25;;;3.45;;
7247;SDS011;3665;51.034;13.642;2023-07-02T14:54:52;4.07;;;3.20;;
7247;SDS011;3665;51.034;13.642;2023-07-02T14:59:48;7.32;;;3.25;;
7247;SDS011;3665;51.034;13.642;2023-07-02T15:04:34;5.60;;;3.80;;
7247;SDS011;3665;51.034;13.642;2023-07-02T15:09:24;5.85;;;3.97;;
7247;SDS011;3665;51.034;13.642;2023-07-02T15:14:14;6.72;;;4.13;;
7247;SDS011;3665;51.034;13.642;2023-07-02T15:19:05;5.40;;;3.78;;
7247;SDS011;3665;51.034;13.642;2023-07-02T15:24:07;7.47;;;4.40;;
7247;SDS011;3665;51.034;13.642;2023-07-02T15:29:07;12.05;;;5.38;;
7247;SDS011;3665;51.034;13.642;2023-07-02T15:33:57;7.53;;;4.82;;
7247;SDS011;3665;51.034;13.642;2023-07-02T15:39:14;6.72;;;4.65;;
7247;SDS011;3665;51.034;13.642;2023-07-02T15:44:04;6.53;;;4.82;;
7247;SDS011;3665;51.034;13.642;2023-07-02T15:48:48;8.02;;;5.75;;
7247;SDS011;3665;51.034;13.642;2023-07-02T15:53:40;8.20;;;4.63;;
7247;SDS011;3665;51.034;13.642;2023-07-02T15:58:42;8.23;;;4.93;;
7247;SDS011;3665;51.034;13.642;2023-07-02T16:03:33;8.48;;;5.80;;
7247;SDS011;3665;51.034;13.642;2023-07-02T16:08:19;7.03;;;5.60;;
7247;SDS011;3665;51.034;13.642;2023-07-02T16:18:10;7.80;;;6.20;;
7247;SDS011;3665;51.034;13.642;2023-07-02T16:23:33;6.63;;;5.93;;
7247;SDS011;3665;51.034;13.642;2023-07-02T16:28:04;8.23;;;6.03;;
7247;SDS011;3665;51.034;13.642;2023-07-02T16:32:54;7.80;;;6.00;;
7247;SDS011;3665;51.034;13.642;2023-07-02T16:37:58;8.10;;;5.70;;
7247;SDS011;3665;51.034;13.642;2023-07-02T16:42:42;6.73;;;5.67;;
7247;SDS011;3665;51.034;13.642;2023-07-02T16:47:31;8.93;;;6.15;;
7247;SDS011;3665;51.034;13.642;2023-07-02T16:52:19;8.10;;;6.57;;
7247;SDS011;3665;51.034;13.642;2023-07-02T16:57:07;10.05;;;5.95;;
7247;SDS011;3665;51.034;13.642;2023-07-02T17:02:07;7.97;;;6.27;;
7247;SDS011;3665;51.034;13.642;2023-07-02T17:06:59;11.13;;;6.70;;
7247;SDS011;3665;51.034;13.642;2023-07-02T17:11:51;11.18;;;7.05;;
7247;SDS011;3665;51.034;13.642;2023-07-02T17:16:37;10.20;;;7.50;;
7247;SDS011;3665;51.034;13.642;2023-07-02T17:21:21;11.13;;;7.53;;
7247;SDS011;3665;51.034;13.642;2023-07-02T17:30:59;8.63;;;7.17;;
7247;SDS011;3665;51.034;13.642;2023-07-02T17:35:43;9.60;;;7.10;;
7247;SDS011;3665;51.034;13.642;2023-07-02T17:40:31;10.33;;;7.13;;
7247;SDS011;3665;51.034;13.642;2023-07-02T17:45:26;9.53;;;7.37;;
7247;SDS011;3665;51.034;13.642;2023-07-02T17:50:11;8.80;;;7.07;;
7247;SDS011;3665;51.034;13.642;2023-07-02T17:54:55;8.53;;;6.93;;
7247;SDS011;3665;51.034;13.642;2023-07-02T17:59:46;10.17;;;7.47;;
7247;SDS011;3665;51.034;13.642;2023-07-02T18:04:35;13.77;;;7.37;;
7247;SDS011;3665;51.034;13.642;2023-07-02T18:09:28;9.03;;;7.67;;
7247;SDS011;3665;51.034;13.642;2023-07-02T18:14:12;9.87;;;7.20;;
7247;SDS011;3665;51.034;13.642;2023-07-02T18:18:58;9.87;;;7.33;;
7247;SDS011;3665;51.034;13.642;2023-07-02T18:23:44;9.83;;;6.87;;
7247;SDS011;3665;51.034;13.642;2023-07-02T18:28:34;12.07;;;7.10;;
7247;SDS011;3665;51.034;13.642;2023-07-02T18:33:24;12.13;;;7.80;;
7247;SDS011;3665;51.034;13.642;2023-07-02T18:38:14;11.43;;;7.43;;
7247;SDS011;3665;51.034;13.642;2023-07-02T18:42:58;7.30;;;4.57;;
7247;SDS011;3665;51.034;13.642;2023-07-02T18:47:50;11.60;;;7.20;;
7247;SDS011;3665;51.034;13.642;2023-07-02T18:52:34;10.43;;;7.73;;
7247;SDS011;3665;51.034;13.642;2023-07-02T18:57:23;10.73;;;8.10;;
7247;SDS011;3665;51.034;13.642;2023-07-02T19:02:11;10.80;;;7.77;;
7247;SDS011;3665;51.034;13.642;2023-07-02T19:06:59;12.67;;;7.93;;
7247;SDS011;3665;51.034;13.642;2023-07-02T19:11:44;9.27;;;8.13;;
7247;SDS011;3665;51.034;13.642;2023-07-02T19:16:28;11.57;;;7.10;;
7247;SDS011;3665;51.034;13.642;2023-07-02T19:21:16;11.43;;;8.10;;
7247;SDS011;3665;51.034;13.642;2023-07-02T19:26:14;10.93;;;7.80;;
7247;SDS011;3665;51.034;13.642;2023-07-02T19:31:00;11.50;;;8.07;;
7247;SDS011;3665;51.034;13.642;2023-07-02T19:35:44;10.47;;;7.63;;
7247;SDS011;3665;51.034;13.642;2023-07-02T19:40:32;11.67;;;7.27;;
7247;SDS011;3665;51.034;13.642;2023-07-02T19:45:23;11.30;;;7.47;;
7247;SDS011;3665;51.034;13.642;2023-07-02T19:50:06;11.87;;;8.17;;
7247;SDS011;3665;51.034;13.642;2023-07-02T19:54:55;12.73;;;8.47;;
7247;SDS011;3665;51.034;13.642;2023-07-02T19:59:45;10.93;;;7.27;;
7247;SDS011;3665;51.034;13.642;2023-07-02T20:04:35;12.10;;;7.57;;
7247;SDS011;3665;51.034;13.642;2023-07-02T20:09:20;9.23;;;7.87;;
7247;SDS011;3665;51.034;13.642;2023-07-02T20:14:12;12.90;;;8.97;;
7247;SDS011;3665;51.034;13.642;2023-07-02T20:18:59;10.87;;;8.07;;
7247;SDS011;3665;51.034;13.642;2023-07-02T20:23:53;11.90;;;8.13;;
7247;SDS011;3665;51.034;13.642;2023-07-02T20:28:37;10.87;;;8.50;;
7247;SDS011;3665;51.034;13.642;2023-07-02T20:33:20;12.93;;;8.67;;
7247;SDS011;3665;51.034;13.642;2023-07-02T20:38:11;9.20;;;7.73;;
7247;SDS011;3665;51.034;13.642;2023-07-02T20:48:03;11.27;;;8.63;;
7247;SDS011;3665;51.034;13.642;2023-07-02T20:52:53;11.43;;;7.87;;
7247;SDS011;3665;51.034;13.642;2023-07-02T20:57:39;10.03;;;7.50;;
7247;SDS011;3665;51.034;13.642;2023-07-02T21:02:26;9.50;;;7.70;;
7247;SDS011;3665;51.034;13.642;2023-07-02T21:07:16;11.33;;;7.70;;
7247;SDS011;3665;51.034;13.642;2023-07-02T21:12:02;12.83;;;8.10;;
7247;SDS011;3665;51.034;13.642;2023-07-02T21:16:50;12.53;;;8.13;;
7247;SDS011;3665;51.034;13.642;2023-07-02T21:21:46;9.90;;;8.13;;
7247;SDS011;3665;51.034;13.642;2023-07-02T21:26:44;9.50;;;7.57;;
7247;SDS011;3665;51.034;13.642;2023-07-02T21:31:30;9.77;;;7.63;;
7247;SDS011;3665;51.034;13.642;2023-07-02T21:36:18;11.27;;;8.27;;
7247;SDS011;3665;51.034;13.642;2023-07-02T21:41:11;11.30;;;8.63;;
7247;SDS011;3665;51.034;13.642;2023-07-02T21:45:55;13.37;;;8.73;;
7247;SDS011;3665;51.034;13.642;2023-07-02T21:50:39;12.93;;;8.67;;
7247;SDS011;3665;51.034;13.642;2023-07-02T21:55:31;15.70;;;9.20;;
7247;SDS011;3665;51.034;13.642;2023-07-02T22:00:28;13.57;;;9.03;;
7247;SDS011;3665;51.034;13.642;2023-07-02T22:05:15;13.70;;;9.07;;
7247;SDS011;3665;51.034;13.642;2023-07-02T22:10:09;12.30;;;8.87;;
7247;SDS011;3665;51.034;13.642;2023-07-02T22:14:55;16.50;;;9.17;;
7247;SDS011;3665;51.034;13.642;2023-07-02T22:19:46;11.93;;;8.83;;
7247;SDS011;3665;51.034;13.642;2023-07-02T22:24:39;11.23;;;7.97;;
7247;SDS011;3665;51.034;13.642;2023-07-02T22:29:22;11.80;;;8.80;;
7247;SDS011;3665;51.034;13.642;2023-07-02T22:34:09;12.47;;;8.50;;
7247;SDS011;3665;51.034;13.642;2023-07-02T22:39:08;14.07;;;9.37;;
7247;SDS011;3665;51.034;13.642;2023-07-02T22:43:56;11.97;;;9.03;;
7247;SDS011;3665;51.034;13.642;2023-07-02T22:48:51;12.77;;;9.27;;
7247;SDS011;3665;51.034;13.642;2023-07-02T22:53:44;13.07;;;9.03;;
7247;SDS011;3665;51.034;13.642;2023-07-02T22:58:29;16.80;;;10.00;;
7247;SDS011;3665;51.034;13.642;2023-07-02T23:03:13;14.33;;;9.90;;
7247;SDS011;3665;51.034;13.642;2023-07-02T23:08:00;12.57;;;9.37;;
7247;SDS011;3665;51.034;13.642;2023-07-02T23:12:46;11.67;;;8.97;;
7247;SDS011;3665;51.034;13.642;2023-07-02T23:17:39;12.57;;;8.60;;
7247;SDS011;3665;51.034;13.642;2023-07-02T23:22:26;16.27;;;9.70;;
7247;SDS011;3665;51.034;13.642;2023-07-02T23:27:16;14.30;;;8.93;;
7247;SDS011;3665;51.034;13.642;2023-07-02T23:32:03;15.60;;;9.43;;
7247;SDS011;3665;51.034;13.642;2023-07-02T23:37:08;14.17;;;9.53;;
7247;SDS011;3665;51.034;13.642;2023-07-02T23:41:55;13.43;;;9.23;;
7247;SDS011;3665;51.034;13.642;2023-07-02T23:46:39;12.87;;;8.73;;
7247;SDS011;3665;51.034;13.642;2023-07-02T23:51:32;14.30;;;10.07;;
7247;SDS011;3665;51.034;13.642;2023-07-02T23:56:20;14.53;;;9.37;;
